createdAt,value
2022-08-01T00:00:05.883Z,56.10
2022-08-01T00:02:32.681Z,55.90
2022-08-01T00:05:01.114Z,55.80
2022-08-01T00:07:27.800Z,55.60
2022-08-01T00:09:54.446Z,55.60
2022-08-01T00:12:21.205Z,55.70
2022-08-01T00:14:48.048Z,55.60
2022-08-01T00:17:14.720Z,55.40
2022-08-01T00:19:41.409Z,55.30
2022-08-01T00:22:08.310Z,55.60
2022-08-01T00:24:35.236Z,55.50
2022-08-01T00:27:01.912Z,55.60
2022-08-01T00:30:10.462Z,55.80
2022-08-01T00:32:15.347Z,55.70
2022-08-01T00:34:41.945Z,55.80
2022-08-01T00:37:08.751Z,55.80
2022-08-01T00:39:36.307Z,55.90
2022-08-01T00:42:13.566Z,55.80
2022-08-01T00:44:40.694Z,55.70
2022-08-01T00:47:08.018Z,55.80
2022-08-01T00:49:35.759Z,55.80
2022-08-01T00:52:05.492Z,55.70
2022-08-01T00:54:32.954Z,55.60
2022-08-01T00:56:59.899Z,55.50
2022-08-01T00:59:27.079Z,55.50
2022-08-01T01:01:54.109Z,55.50
2022-08-01T01:04:21.628Z,55.80
2022-08-01T01:07:19.171Z,55.70
2022-08-01T01:10:01.650Z,55.10
2022-08-01T01:12:45.852Z,55.30
2022-08-01T01:15:27.467Z,55.20
2022-08-01T01:18:04.802Z,56.00
2022-08-01T01:20:39.053Z,56.10
2022-08-01T01:23:31.818Z,55.90
2022-08-01T01:26:11.816Z,55.70
2022-08-01T01:29:06.554Z,55.80
2022-08-01T01:31:58.208Z,55.70
2022-08-01T01:34:27.743Z,54.20
2022-08-01T01:36:57.374Z,55.50
2022-08-01T01:39:26.785Z,55.80
2022-08-01T01:41:55.300Z,55.80
2022-08-01T01:44:22.155Z,55.70
2022-08-01T01:46:51.189Z,55.40
2022-08-01T01:49:23.852Z,55.50
2022-08-01T01:52:02.195Z,55.80
2022-08-01T01:54:40.112Z,55.50
2022-08-01T01:57:09.706Z,55.30
2022-08-01T01:59:39.522Z,55.10
2022-08-01T02:02:08.341Z,55.20
2022-08-01T02:04:43.558Z,55.30
2022-08-01T02:07:15.384Z,55.30
2022-08-01T02:09:44.638Z,54.90
2022-08-01T02:12:13.627Z,55.10
2022-08-01T02:14:42.099Z,54.70
2022-08-01T02:17:13.238Z,55.00
2022-08-01T02:19:40.089Z,55.60
2022-08-01T02:22:21.566Z,55.20
2022-08-01T02:24:59.957Z,54.70
2022-08-01T02:27:35.618Z,55.60
2022-08-01T02:30:12.548Z,55.70
2022-08-01T02:32:52.220Z,55.40
2022-08-01T02:35:28.954Z,55.10
2022-08-01T02:37:59.468Z,55.80
2022-08-01T02:40:29.103Z,55.90
2022-08-01T02:42:57.885Z,55.80
2022-08-01T02:45:27.463Z,55.70
2022-08-01T02:48:06.832Z,55.80
2022-08-01T02:50:35.750Z,55.80
2022-08-01T02:53:03.667Z,56.00
2022-08-01T02:55:33.156Z,55.90
2022-08-01T02:58:01.886Z,56.00
2022-08-01T03:00:31.535Z,55.90
2022-08-01T03:03:00.459Z,56.20
2022-08-01T03:05:28.076Z,56.00
2022-08-01T03:07:56.957Z,56.00
2022-08-01T03:10:31.703Z,56.20
2022-08-01T03:13:01.207Z,56.30
2022-08-01T03:15:31.554Z,56.20
2022-08-01T03:18:00.439Z,56.20
2022-08-01T03:20:29.035Z,55.70
2022-08-01T03:22:57.740Z,56.10
2022-08-01T03:25:26.537Z,56.40
2022-08-01T03:27:57.499Z,56.20
2022-08-01T03:30:26.121Z,56.80
2022-08-01T03:32:53.048Z,56.30
2022-08-01T03:35:20.942Z,56.00
2022-08-01T03:38:14.898Z,56.10
2022-08-01T03:40:49.755Z,56.20
2022-08-01T03:43:25.343Z,56.40
2022-08-01T03:45:54.212Z,56.20
2022-08-01T03:48:28.498Z,55.90
2022-08-01T03:50:55.924Z,56.10
2022-08-01T03:53:29.559Z,55.60
2022-08-01T03:55:59.538Z,56.20
2022-08-01T03:58:27.881Z,55.90
2022-08-01T04:00:55.408Z,55.80
2022-08-01T04:03:23.082Z,56.00
2022-08-01T04:05:49.759Z,56.10
2022-08-01T04:08:16.514Z,56.00
2022-08-01T04:10:43.411Z,55.70
2022-08-01T04:13:10.050Z,55.30
2022-08-01T04:15:36.708Z,55.60
2022-08-01T04:18:03.863Z,55.40
2022-08-01T04:20:30.815Z,55.50
2022-08-01T04:22:57.473Z,55.70
2022-08-01T04:25:32.786Z,55.70
2022-08-01T04:28:02.044Z,56.10
2022-08-01T04:30:30.857Z,55.70
2022-08-01T04:33:00.509Z,55.80
2022-08-01T04:36:02.708Z,55.90
2022-08-01T04:38:22.137Z,55.70
2022-08-01T04:40:52.783Z,55.80
2022-08-01T04:43:19.851Z,55.70
2022-08-01T04:45:48.059Z,55.50
2022-08-01T04:48:17.318Z,55.80
2022-08-01T04:50:44.103Z,56.00
2022-08-01T04:53:18.692Z,55.90
2022-08-01T04:55:46.906Z,56.20
2022-08-01T04:58:17.937Z,51.50
2022-08-01T05:00:45.934Z,55.70
2022-08-01T05:03:12.610Z,55.70
2022-08-01T05:05:39.293Z,55.70
2022-08-01T05:08:07.170Z,55.60
2022-08-01T05:10:35.012Z,55.40
2022-08-01T05:13:01.802Z,55.60
2022-08-01T05:15:28.452Z,55.20
2022-08-01T05:17:55.488Z,55.60
2022-08-01T05:20:22.324Z,55.50
2022-08-01T05:22:49.275Z,55.80
2022-08-01T05:25:17.163Z,55.60
2022-08-01T05:27:47.383Z,55.70
2022-08-01T05:30:16.404Z,55.50
2022-08-01T05:32:43.120Z,55.30
2022-08-01T05:35:10.440Z,55.30
2022-08-01T05:37:37.044Z,55.30
2022-08-01T05:40:04.664Z,55.60
2022-08-01T05:42:31.460Z,55.70
2022-08-01T05:44:58.094Z,55.80
2022-08-01T05:47:24.885Z,55.70
2022-08-01T05:49:51.530Z,55.70
2022-08-01T05:54:45.335Z,55.20
2022-08-01T05:57:12.440Z,56.50
2022-08-01T05:59:39.498Z,55.90
2022-08-01T06:02:06.448Z,55.70
2022-08-01T06:04:33.287Z,55.50
2022-08-01T06:06:59.935Z,55.50
2022-08-01T06:09:26.628Z,55.50
2022-08-01T06:11:53.301Z,55.50
2022-08-01T06:14:20.087Z,55.60
2022-08-01T06:16:46.712Z,55.50
2022-08-01T06:19:13.360Z,55.60
2022-08-01T06:21:40.127Z,55.60
2022-08-01T06:24:06.987Z,55.20
2022-08-01T06:26:33.639Z,55.40
2022-08-01T06:29:00.352Z,55.60
2022-08-01T06:31:31.724Z,54.90
2022-08-01T06:34:00.333Z,55.60
2022-08-01T06:36:27.000Z,55.90
2022-08-01T06:38:53.628Z,55.80
2022-08-01T06:41:20.327Z,55.40
2022-08-01T06:43:47.035Z,55.20
2022-08-01T06:46:13.664Z,55.20
2022-08-01T06:48:40.724Z,55.30
2022-08-01T06:51:13.006Z,55.20
2022-08-01T06:53:39.875Z,55.20
2022-08-01T06:56:09.509Z,55.10
2022-08-01T06:58:36.487Z,55.10
2022-08-01T07:01:06.910Z,55.10
2022-08-01T07:03:54.727Z,54.90
2022-08-01T07:06:23.777Z,54.70
2022-08-01T07:08:50.505Z,54.70
2022-08-01T07:11:17.472Z,54.40
2022-08-01T07:13:46.448Z,54.30
2022-08-01T07:16:14.480Z,54.40
2022-08-01T07:18:41.354Z,54.40
2022-08-01T07:21:18.537Z,53.70
2022-08-01T07:23:55.875Z,53.30
2022-08-01T07:26:23.195Z,53.70
2022-08-01T07:28:49.880Z,53.60
2022-08-01T07:31:16.494Z,53.70
2022-08-01T07:33:48.700Z,53.70
2022-08-01T07:36:19.349Z,53.80
2022-08-01T07:38:46.609Z,53.70
2022-08-01T07:41:13.444Z,53.70
2022-08-01T07:43:40.132Z,54.20
2022-08-01T07:46:07.199Z,54.10
2022-08-01T07:48:34.327Z,54.50
2022-08-01T07:51:01.196Z,54.40
2022-08-01T07:53:28.022Z,54.10
2022-08-01T07:55:54.634Z,53.90
2022-08-01T07:58:21.372Z,53.80
2022-08-01T08:00:48.010Z,53.50
2022-08-01T08:03:14.664Z,53.20
2022-08-01T08:05:57.818Z,53.00
2022-08-01T08:08:25.744Z,53.10
2022-08-01T08:10:52.508Z,53.00
2022-08-01T08:13:19.469Z,53.10
2022-08-01T08:15:48.213Z,53.10
2022-08-01T08:18:15.491Z,53.20
2022-08-01T08:20:42.322Z,53.60
2022-08-01T08:23:42.738Z,53.90
2022-08-01T08:26:11.692Z,53.80
2022-08-01T08:28:38.428Z,53.80
2022-08-01T08:31:07.393Z,53.60
2022-08-01T08:33:34.124Z,53.80
2022-08-01T08:36:00.824Z,54.10
2022-08-01T08:38:29.811Z,54.10
2022-08-01T08:40:57.473Z,54.40
2022-08-01T08:43:26.205Z,54.90
2022-08-01T08:45:59.593Z,54.60
2022-08-01T08:48:27.929Z,54.90
2022-08-01T08:50:56.186Z,54.70
2022-08-01T08:53:23.085Z,54.20
2022-08-01T08:55:55.679Z,54.10
2022-08-01T08:58:31.633Z,53.70
2022-08-01T09:00:59.003Z,53.90
2022-08-01T09:03:25.903Z,54.30
2022-08-01T09:05:52.657Z,54.20
2022-08-01T09:08:19.387Z,54.70
2022-08-01T09:10:46.116Z,54.10
2022-08-01T09:13:15.337Z,54.50
2022-08-01T09:15:54.852Z,54.80
2022-08-01T09:18:33.014Z,54.70
2022-08-01T09:21:18.868Z,54.20
2022-08-01T09:23:55.054Z,53.20
2022-08-01T09:26:36.430Z,54.30
2022-08-01T09:29:06.109Z,54.30
2022-08-01T09:31:42.841Z,54.60
2022-08-01T09:34:15.597Z,54.70
2022-08-01T09:36:56.238Z,54.60
2022-08-01T09:39:25.535Z,55.20
2022-08-01T09:41:55.006Z,55.80
2022-08-01T09:44:41.393Z,55.80
2022-08-01T09:47:10.881Z,55.00
2022-08-01T09:49:49.890Z,55.40
2022-08-01T09:52:26.060Z,56.20
2022-08-01T09:55:04.443Z,56.50
2022-08-01T09:57:31.575Z,56.40
2022-08-01T10:00:01.307Z,56.30
2022-08-01T10:02:37.642Z,56.10
2022-08-01T10:05:09.315Z,56.00
2022-08-01T10:07:58.872Z,56.10
2022-08-01T10:10:29.125Z,55.10
2022-08-01T10:13:01.753Z,55.20
2022-08-01T10:15:36.485Z,55.10
2022-08-01T10:18:06.803Z,55.20
2022-08-01T10:20:43.707Z,53.60
2022-08-01T10:23:12.081Z,54.50
2022-08-01T10:25:47.006Z,54.50
2022-08-01T10:28:23.716Z,54.60
2022-08-01T10:30:53.154Z,54.30
2022-08-01T10:33:51.547Z,54.10
2022-08-01T10:36:10.574Z,53.70
2022-08-01T10:38:37.787Z,53.30
2022-08-01T10:41:08.596Z,52.80
2022-08-01T10:43:36.438Z,52.70
2022-08-01T10:46:04.922Z,52.10
2022-08-01T10:48:53.714Z,52.10
2022-08-01T10:51:51.209Z,51.70
2022-08-01T10:54:11.715Z,51.60
2022-08-01T10:56:46.057Z,51.10
2022-08-01T10:59:49.859Z,50.70
2022-08-01T11:02:07.601Z,50.50
2022-08-01T11:04:47.460Z,50.30
2022-08-01T11:07:20.245Z,50.50
2022-08-01T11:10:20.447Z,50.30
2022-08-01T11:12:51.163Z,50.20
2022-08-01T11:15:29.056Z,50.30
2022-08-01T11:18:00.659Z,49.80
2022-08-01T11:20:31.230Z,49.40
2022-08-01T11:23:07.293Z,49.50
2022-08-01T11:25:58.396Z,49.60
2022-08-01T11:28:30.212Z,49.30
2022-08-01T11:31:07.957Z,49.30
2022-08-01T11:33:46.873Z,49.20
2022-08-01T11:36:14.552Z,49.00
2022-08-01T11:39:13.483Z,48.60
2022-08-01T11:41:41.929Z,48.80
2022-08-01T11:44:10.091Z,49.00
2022-08-01T11:47:01.340Z,48.60
2022-08-01T11:49:33.515Z,49.10
2022-08-01T11:52:04.216Z,48.80
2022-08-01T11:54:36.184Z,48.30
2022-08-01T11:57:13.796Z,48.30
2022-08-01T12:00:02.708Z,47.90
2022-08-01T12:02:35.233Z,47.10
2022-08-01T12:05:14.107Z,47.00
2022-08-01T12:07:42.648Z,47.10
2022-08-01T12:10:11.980Z,46.90
2022-08-01T12:12:49.467Z,46.80
2022-08-01T12:15:16.782Z,46.60
2022-08-01T12:17:58.425Z,46.20
2022-08-01T12:20:32.154Z,46.70
2022-08-01T12:23:06.845Z,46.30
2022-08-01T12:25:33.896Z,46.20
2022-08-01T12:28:02.790Z,46.50
2022-08-01T12:30:31.774Z,46.00
2022-08-01T12:32:59.069Z,45.40
2022-08-01T12:35:27.684Z,45.30
2022-08-01T12:37:57.686Z,45.40
2022-08-01T12:40:29.322Z,45.20
2022-08-01T12:43:07.001Z,45.10
2022-08-01T12:45:56.470Z,45.10
2022-08-01T12:48:24.999Z,44.80
2022-08-01T12:50:53.455Z,45.10
2022-08-01T12:53:21.742Z,45.20
2022-08-01T12:55:58.102Z,44.50
2022-08-01T12:58:34.777Z,44.30
2022-08-01T13:01:26.690Z,44.40
2022-08-01T13:04:05.109Z,44.40
2022-08-01T13:06:31.860Z,44.10
2022-08-01T13:09:09.846Z,43.50
2022-08-01T13:11:37.075Z,43.30
2022-08-01T13:14:04.033Z,43.70
2022-08-01T13:16:49.105Z,43.10
2022-08-01T13:19:17.880Z,42.50
2022-08-01T13:21:57.899Z,42.70
2022-08-01T13:24:26.837Z,43.20
2022-08-01T13:27:03.555Z,42.60
2022-08-01T13:29:35.967Z,42.40
2022-08-01T13:32:29.035Z,41.60
2022-08-01T13:35:08.973Z,42.30
2022-08-01T13:37:40.173Z,42.20
2022-08-01T13:40:08.303Z,42.00
2022-08-01T13:42:35.642Z,41.40
2022-08-01T13:45:03.999Z,42.10
2022-08-01T13:47:32.617Z,41.60
2022-08-01T13:50:03.967Z,42.20
2022-08-01T13:52:31.584Z,41.20
2022-08-01T13:54:58.911Z,41.20
2022-08-01T13:57:25.842Z,41.70
2022-08-01T14:00:04.790Z,41.20
2022-08-01T14:02:31.463Z,41.80
2022-08-01T14:04:59.420Z,41.60
2022-08-01T14:07:26.121Z,42.00
2022-08-01T14:10:04.899Z,41.80
2022-08-01T14:12:42.164Z,41.40
2022-08-01T14:15:14.984Z,41.60
2022-08-01T14:18:01.720Z,41.80
2022-08-01T14:20:28.374Z,40.80
2022-08-01T14:22:55.140Z,41.10
2022-08-01T14:25:57.838Z,41.40
2022-08-01T14:28:08.498Z,41.40
2022-08-01T14:30:35.126Z,41.70
2022-08-01T14:33:01.787Z,41.30
2022-08-01T14:35:28.484Z,41.90
2022-08-01T14:38:15.260Z,41.40
2022-08-01T14:40:56.018Z,41.70
2022-08-01T14:43:28.241Z,41.80
2022-08-01T14:45:59.235Z,41.60
2022-08-01T14:48:26.197Z,41.30
2022-08-01T14:50:53.005Z,41.80
2022-08-01T14:53:19.724Z,42.10
2022-08-01T14:55:46.419Z,42.20
2022-08-01T14:58:13.142Z,41.80
2022-08-01T15:00:39.836Z,42.20
2022-08-01T15:03:06.534Z,41.90
2022-08-01T15:05:33.779Z,42.50
2022-08-01T15:08:00.478Z,42.20
2022-08-01T15:10:27.852Z,41.60
2022-08-01T15:12:54.546Z,41.20
2022-08-01T15:15:21.958Z,41.90
2022-08-01T15:17:48.784Z,42.50
2022-08-01T15:20:15.525Z,42.10
2022-08-01T15:22:42.217Z,41.80
2022-08-01T15:25:10.950Z,41.80
2022-08-01T15:27:38.503Z,42.40
2022-08-01T15:30:05.427Z,42.50
2022-08-01T15:32:32.103Z,42.50
2022-08-01T15:34:58.750Z,43.10
2022-08-01T15:37:25.636Z,43.00
2022-08-01T15:39:56.465Z,42.60
2022-08-01T15:42:25.653Z,42.60
2022-08-01T15:44:54.222Z,42.80
2022-08-01T15:47:22.610Z,42.70
2022-08-01T15:49:52.347Z,43.10
2022-08-01T15:52:21.903Z,43.30
2022-08-01T15:54:49.342Z,43.00
2022-08-01T15:57:15.985Z,43.10
2022-08-01T15:59:42.720Z,42.80
2022-08-01T16:02:09.903Z,42.70
2022-08-01T16:04:39.258Z,43.00
2022-08-01T16:07:06.391Z,43.00
2022-08-01T16:09:33.287Z,43.30
2022-08-01T16:12:00.411Z,42.90
2022-08-01T16:14:27.032Z,42.90
2022-08-01T16:16:56.623Z,43.80
2022-08-01T16:19:24.168Z,42.40
2022-08-01T16:21:53.154Z,43.30
2022-08-01T16:24:19.876Z,44.00
2022-08-01T16:26:46.515Z,43.50
2022-08-01T16:29:13.221Z,44.00
2022-08-01T16:31:41.906Z,43.90
2022-08-01T16:34:26.677Z,44.50
2022-08-01T16:36:55.256Z,44.20
2022-08-01T16:39:23.531Z,43.90
2022-08-01T16:41:55.339Z,44.20
2022-08-01T16:44:33.299Z,44.30
2022-08-01T16:47:01.411Z,44.20
2022-08-01T16:49:28.109Z,44.50
2022-08-01T16:51:54.797Z,45.00
2022-08-01T16:57:08.579Z,45.20
2022-08-01T16:59:41.516Z,45.30
2022-08-01T17:02:11.630Z,45.10
2022-08-01T17:04:38.561Z,45.30
2022-08-01T17:07:05.529Z,45.40
2022-08-01T17:09:35.345Z,45.00
2022-08-01T17:12:04.294Z,45.00
2022-08-01T17:14:33.241Z,45.20
2022-08-01T17:16:59.985Z,45.40
2022-08-01T17:19:32.641Z,45.70
2022-08-01T17:22:00.105Z,46.20
2022-08-01T17:24:27.046Z,46.10
2022-08-01T17:26:53.673Z,46.00
2022-08-01T17:29:20.320Z,46.30
2022-08-01T17:31:46.974Z,46.20
2022-08-01T17:34:13.599Z,46.50
2022-08-01T17:36:40.376Z,46.50
2022-08-01T17:39:08.677Z,46.50
2022-08-01T17:41:35.781Z,46.50
2022-08-01T17:44:02.399Z,45.90
2022-08-01T17:46:30.356Z,46.00
2022-08-01T17:48:57.158Z,46.70
2022-08-01T17:51:24.173Z,46.50
2022-08-01T17:53:57.450Z,46.40
2022-08-01T17:56:28.260Z,46.90
2022-08-01T17:58:58.132Z,47.10
2022-08-01T18:01:26.702Z,47.30
2022-08-01T18:03:54.795Z,47.80
2022-08-01T18:06:23.452Z,47.60
2022-08-01T18:08:56.148Z,47.20
2022-08-01T18:11:24.637Z,47.40
2022-08-01T18:13:54.023Z,47.70
2022-08-01T18:19:21.054Z,48.00
2022-08-01T18:21:48.764Z,48.20
2022-08-01T18:26:51.677Z,48.30
2022-08-01T18:29:23.239Z,48.90
2022-08-01T18:32:08.508Z,48.90
2022-08-01T18:34:35.203Z,49.10
2022-08-01T18:37:04.727Z,49.20
2022-08-01T18:39:36.731Z,49.30
2022-08-01T18:42:08.949Z,49.50
2022-08-01T18:44:38.962Z,49.60
2022-08-01T18:47:05.828Z,49.70
2022-08-01T18:52:11.752Z,49.90
2022-08-01T18:54:38.708Z,50.00
2022-08-01T18:57:05.554Z,50.20
2022-08-01T19:02:10.591Z,50.00
2022-08-01T19:04:37.464Z,50.10
2022-08-01T19:10:06.844Z,50.70
2022-08-01T19:12:33.707Z,50.70
2022-08-01T19:15:04.407Z,50.30
2022-08-01T19:17:34.156Z,50.00
2022-08-01T19:20:00.870Z,50.70
2022-08-01T19:22:27.549Z,50.90
2022-08-01T19:24:54.164Z,51.00
2022-08-01T19:27:26.390Z,51.20
2022-08-01T19:29:55.829Z,51.10
2022-08-01T19:32:25.140Z,51.50
2022-08-01T19:35:13.122Z,51.40
2022-08-01T19:40:27.412Z,51.70
2022-08-01T19:42:56.525Z,51.80
2022-08-01T19:45:56.819Z,52.00
2022-08-01T19:48:26.737Z,51.90
2022-08-01T19:50:54.257Z,51.60
2022-08-01T19:59:04.642Z,51.80
2022-08-01T20:01:32.242Z,51.30
2022-08-01T20:04:03.737Z,51.50
2022-08-01T20:06:31.356Z,51.50
2022-08-01T20:08:58.844Z,51.70
2022-08-01T20:11:26.531Z,51.70
2022-08-01T20:13:55.120Z,51.60
2022-08-01T20:16:21.819Z,51.80
2022-08-01T20:18:48.682Z,51.60
2022-08-01T20:21:15.483Z,51.60
2022-08-01T20:23:45.651Z,51.40
2022-08-01T20:26:16.601Z,51.50
2022-08-01T20:28:48.604Z,51.60
2022-08-01T20:31:16.595Z,51.70
2022-08-01T20:33:49.370Z,52.00
2022-08-01T20:36:25.725Z,52.10
2022-08-01T20:38:55.066Z,52.10
2022-08-01T20:41:27.235Z,52.40
2022-08-01T20:43:56.573Z,52.70
2022-08-01T20:46:29.767Z,52.80
2022-08-01T20:48:59.503Z,52.60
2022-08-01T20:51:27.768Z,52.50
2022-08-01T20:53:55.948Z,52.30
2022-08-01T20:56:27.874Z,52.40
2022-08-01T20:59:39.737Z,52.40
2022-08-01T21:02:29.857Z,52.40
2022-08-01T21:05:10.855Z,52.20
2022-08-01T21:07:50.818Z,52.30
2022-08-01T21:10:24.253Z,52.20
2022-08-01T21:12:58.452Z,52.30
2022-08-01T21:15:29.993Z,52.40
2022-08-01T21:18:22.745Z,52.40
2022-08-01T21:20:59.149Z,52.60
2022-08-01T21:23:40.093Z,52.70
2022-08-01T21:26:12.356Z,52.80
2022-08-01T21:28:41.029Z,52.90
2022-08-01T21:31:21.738Z,53.00
2022-08-01T21:34:02.640Z,52.90
2022-08-01T21:36:30.901Z,52.90
2022-08-01T21:38:59.232Z,52.80
2022-08-01T21:42:03.313Z,52.80
2022-08-01T21:44:16.684Z,52.80
2022-08-01T21:46:44.092Z,52.60
2022-08-01T21:49:11.572Z,52.70
2022-08-01T21:51:52.303Z,52.70
2022-08-01T21:54:45.326Z,52.80
2022-08-01T21:57:25.872Z,52.60
2022-08-01T22:00:07.603Z,52.60
2022-08-01T22:03:11.999Z,52.60
2022-08-01T22:05:50.671Z,52.70
2022-08-01T22:08:51.428Z,52.60
2022-08-01T22:11:34.192Z,52.70
2022-08-01T22:14:09.493Z,52.90
2022-08-01T22:16:40.647Z,52.90
2022-08-01T22:19:32.458Z,53.00
2022-08-01T22:22:00.498Z,53.00
2022-08-01T22:24:28.381Z,52.90
2022-08-01T22:26:55.992Z,52.90
2022-08-01T22:29:23.667Z,52.90
2022-08-01T22:31:56.706Z,52.80
2022-08-01T22:34:26.587Z,52.90
2022-08-01T22:36:55.971Z,52.90
2022-08-01T22:39:24.263Z,52.80
2022-08-01T22:42:01.312Z,52.90
2022-08-01T22:44:52.749Z,52.90
2022-08-01T22:47:43.792Z,53.00
2022-08-01T22:50:18.718Z,53.00
2022-08-01T22:53:21.381Z,52.90
2022-08-01T22:55:58.507Z,52.90
2022-08-01T22:58:30.704Z,52.90
2022-08-01T23:01:01.348Z,53.00
2022-08-01T23:03:36.876Z,53.10
2022-08-01T23:06:40.652Z,53.20
2022-08-01T23:09:09.621Z,52.90
2022-08-01T23:11:38.450Z,53.00
2022-08-01T23:14:05.536Z,52.90
2022-08-01T23:16:32.572Z,52.80
2022-08-01T23:19:00.089Z,52.80
2022-08-01T23:21:28.288Z,52.90
2022-08-01T23:23:56.701Z,52.90
2022-08-01T23:26:23.929Z,52.90
2022-08-01T23:28:51.637Z,52.90
2022-08-01T23:31:20.164Z,53.00
2022-08-01T23:33:46.797Z,53.10
2022-08-01T23:36:17.240Z,53.00
2022-08-01T23:38:47.153Z,52.90
2022-08-01T23:41:16.575Z,52.90
2022-08-01T23:43:52.409Z,52.80
2022-08-01T23:46:19.278Z,53.00
2022-08-01T23:48:45.896Z,53.00
2022-08-01T23:51:24.011Z,53.00
2022-08-01T23:53:51.486Z,53.00
2022-08-01T23:56:20.992Z,53.00
2022-08-01T23:58:51.759Z,53.00
